Selvin, Indiana
Current Conditions -  °F | °C
As of 6:15 PM on Sunday 23 Nov 2014 (Local Time) from KHNB Reporting Station
Overcast Overcast  
Wind Chill: 55°   Ceiling: 1100
Heat Index: 55°   Visibility: 10mi
Dew Point: 52°   Wind: 18mph
Humidity: 88%   Direction: 140°SE
Pressure: 29.32"   Gusts: 24mph
Location:  38.17°N, 87.0282°W
Report Text: KHNB 240015Z AUTO 14016G21KT 10SM BKN011 OVC017 13/11 A2932 RMK AO1
Loading
Personal Weather Stations






























Interactive Weather Map New forecast layout! Learn more

10-Day Weather Forecast

Advertisements
Track Severe Weather on mobile